Tenoumaru — JM6583 — position and weather

sailwx.info

Track history (hours):
 
Tides and Currents Weather Stations Pressure Air Temp Water Temp Dewpoint Dewpoint Depression Visibility Wind Speed Wind Dir Waves Ship Positions

Tenoumaru

Last reported at 2018-Feb-16 15:11 UTC. Time now 2018-Feb-20 19:40 UTC.
Position N 34°36' E 138°55'.

Length 80 m; draft 5.3 m.

Type: Cargo ship. MMSI: 431600768.

Date/timePositionNaut miles runAvg speedWind from/ knotsBaromVisibWave heightAir tempDewpointWater temp
2018-Feb-16 15:11N 34°36' E 138°55'5210.2
2018-Feb-16 10:04N 35°08' E 139°44'111.4
2018-Feb-16 09:59N 35°09' E 139°44'611.3
2018-Feb-16 09:28N 35°15' E 139°46'511.2
2018-Feb-16 09:00N 35°19' E 139°43'5 9.8
2018-Feb-16 08:30N 35°24' E 139°42'4 7.6
2018-Feb-16 08:00N 35°28' E 139°40'1 2.2
2018-Feb-16 07:29N 35°29' E 139°40'0 0.0
2018-Feb-16 07:00N 35°29' E 139°40'0 0.0
2018-Feb-16 06:30N 35°29' E 139°40'0 0.0
2018-Feb-16 06:00N 35°29' E 139°40'0 0.0
2018-Feb-16 05:30N 35°29' E 139°40'0 0.0
2018-Feb-16 05:00N 35°29' E 139°40'0 0.0
2018-Feb-16 04:30N 35°29' E 139°40'0 0.0
2018-Feb-16 04:00N 35°29' E 139°40'0 0.0
2018-Feb-16 03:30N 35°29' E 139°40'0 0.0
2018-Feb-16 03:00N 35°29' E 139°40'0 0.0
2018-Feb-16 02:29N 35°29' E 139°40'0 0.0
2018-Feb-16 02:00N 35°29' E 139°40'0 0.0
2018-Feb-16 01:30N 35°29' E 139°40'0 0.0
2018-Feb-16 01:00N 35°29' E 139°40'0 0.0
2018-Feb-16 00:30N 35°29' E 139°40'0 0.0
2018-Feb-16 00:00N 35°29' E 139°40'0 0.0
2018-Feb-15 23:30N 35°29' E 139°40'0 0.0
2018-Feb-15 23:00N 35°29' E 139°40'1 1.2
2018-Feb-15 22:30N 35°29' E 139°39'0 0.0
2018-Feb-15 22:00N 35°29' E 139°39'0 0.0
2018-Feb-15 21:30N 35°29' E 139°39'0 0.0
2018-Feb-15 20:59N 35°29' E 139°39'0 0.0
2018-Feb-15 20:30N 35°29' E 139°39'0 0.0
2018-Feb-15 20:00N 35°29' E 139°39'0 0.0
2018-Feb-15 19:30N 35°29' E 139°39'0 0.0
2018-Feb-15 19:00N 35°29' E 139°39'0 0.0
2018-Feb-15 18:30N 35°29' E 139°39'0 0.0
2018-Feb-15 18:00N 35°29' E 139°39'0 0.0
2018-Feb-15 17:30N 35°29' E 139°39'0 0.0
2018-Feb-15 17:00N 35°29' E 139°39'0 0.0
2018-Feb-15 16:30N 35°29' E 139°39'0 0.0
2018-Feb-15 16:00N 35°29' E 139°39'0 0.0
2018-Feb-15 15:30N 35°29' E 139°39'0 0.0
2018-Feb-15 15:00N 35°29' E 139°39'0 0.0
2018-Feb-15 14:30N 35°29' E 139°39'0 0.0
2018-Feb-15 14:00N 35°29' E 139°39'0 0.0
2018-Feb-15 13:30N 35°29' E 139°39'0 0.0
2018-Feb-15 13:00N 35°29' E 139°39'0 0.0
2018-Feb-15 12:30N 35°29' E 139°39'0 0.0
2018-Feb-15 12:00N 35°29' E 139°39'0 0.0
2018-Feb-15 11:29N 35°29' E 139°39'0 0.0
2018-Feb-15 11:00N 35°29' E 139°39'0 0.0
2018-Feb-15 10:30N 35°29' E 139°39'0 0.0
2018-Feb-15 10:00N 35°29' E 139°39'0 0.0
2018-Feb-15 09:30N 35°29' E 139°39'0 0.0
2018-Feb-15 09:00N 35°29' E 139°39'0 0.0
2018-Feb-15 08:30N 35°29' E 139°39'0 0.0
2018-Feb-15 08:00N 35°29' E 139°39'0 0.0
2018-Feb-15 07:30N 35°29' E 139°39'0 0.0
2018-Feb-15 07:00N 35°29' E 139°39'0 0.0
2018-Feb-15 06:30N 35°29' E 139°39'0 0.0
2018-Feb-15 06:00N 35°29' E 139°39'0 0.0
2018-Feb-15 05:30N 35°29' E 139°39'0 0.0
2018-Feb-15 04:58N 35°29' E 139°39'0 0.8
2018-Feb-15 04:30N 35°28' E 139°39'510.2
2018-Feb-15 04:00N 35°27' E 139°45'611.5
2018-Feb-15 03:28N 35°30' E 139°52'510.5
2018-Feb-15 03:00N 35°28' E 139°58'1 1.6
2018-Feb-15 02:25N 35°27' E 139°58'0 0.0
2018-Feb-15 02:00N 35°27' E 139°58'0 0.0
2018-Feb-15 01:30N 35°27' E 139°58'0 0.0
2018-Feb-15 01:00N 35°27' E 139°58'0 0.0
2018-Feb-15 00:30N 35°27' E 139°58'0 0.0
2018-Feb-15 00:00N 35°27' E 139°58'3 4.1
2018-Feb-14 23:22N 35°29' E 139°56'0 0.1
2018-Feb-14 23:00N 35°29' E 139°57'0 0.0
2018-Feb-14 22:28N 35°29' E 139°57'0 0.0
2018-Feb-14 19:30N 35°29' E 139°57'2 3.9
2018-Feb-14 19:00N 35°29' E 139°54'511.0
2018-Feb-14 18:30N 35°26' E 139°49'611.4
2018-Feb-14 18:00N 35°21' E 139°45'610.7
2018-Feb-14 17:28N 35°16' E 139°47'611.3
2018-Feb-14 16:58N 35°10' E 139°47'510.6
2018-Feb-14 16:30N 35°05' E 139°44'510.7
2018-Feb-14 16:00N 35°02' E 139°39'1412.9
2018-Feb-14 14:55N 34°55' E 139°24'613.9
2018-Feb-14 14:29N 34°52' E 139°18'812.7
2018-Feb-14 13:51N 34°47' E 139°10'611.5
2018-Feb-14 13:19N 34°43' E 139°05'712.4
2018-Feb-14 12:44N 34°38' E 138°59'312.8
2018-Feb-14 12:29N 34°35' E 138°56'613.0
2018-Feb-14 12:00N 34°35' E 138°49'811.8
2018-Feb-14 11:21N 34°34' E 138°39'511.0
2018-Feb-14 10:55N 34°33' E 138°34'1411.1
2018-Feb-14 09:39N 34°32' E 138°17'  
2018-Feb-10 20:25N 33°48' E 132°31'113 8.9
2018-Feb-10 07:45N 34°05' E 134°46'257 9.3
2018-Feb-09 04:00N 35°14' E 139°46'1510.0
2018-Feb-09 02:30N 35°29' E 139°42'1 2.0
2018-Feb-09 02:00N 35°30' E 139°43'0 0.0
2018-Feb-09 01:00N 35°30' E 139°43'0 0.0
2018-Feb-08 23:00N 35°30' E 139°43'5 4.6
2018-Feb-08 22:00N 35°30' E 139°49'0 0.1
2018-Feb-08 18:00N 35°29' E 139°49'0 0.0
2018-Feb-08 17:30N 35°29' E 139°49'0 0.0
2018-Feb-08 11:00N 35°29' E 139°49'0 0.0
2018-Feb-08 10:30N 35°29' E 139°49'0 0.0
2018-Feb-08 10:00N 35°29' E 139°49'0 0.0
2018-Feb-08 09:00N 35°29' E 139°49'3 3.4
2018-Feb-08 08:00N 35°31' E 139°45'0 0.1
2018-Feb-08 07:00N 35°31' E 139°45'0 0.0
2018-Feb-08 05:30N 35°31' E 139°45'0 0.0
2018-Feb-08 04:30N 35°31' E 139°45'0 0.0
2018-Feb-08 04:00N 35°31' E 139°45'0 0.0
2018-Feb-08 03:30N 35°31' E 139°45'0 0.0
2018-Feb-08 03:00N 35°31' E 139°45'12 8.1
2018-Feb-08 01:30N 35°18' E 139°44'510.8
2018-Feb-08 01:01N 35°14' E 139°47'610.9
2018-Feb-08 00:30N 35°08' E 139°46'1010.8
2018-Feb-07 23:36N 35°01' E 139°38'2411.5
2018-Feb-07 21:30N 34°47' E 139°15'21510.2
2018-Feb-07 00:22N 33°49' E 135°03'511.7
2018-Feb-06 23:57N 33°53' E 134°59'511.5
2018-Feb-06 23:30N 33°56' E 134°55'711.5
2018-Feb-06 22:52N 34°02' E 134°49'411.8
2018-Feb-06 22:30N 34°05' E 134°46'712.0
2018-Feb-06 21:53N 34°11' E 134°41'512.9
2018-Feb-06 21:29N 34°16' E 134°37'611.8
2018-Feb-06 21:00N 34°17' E 134°31'  
Track history (hours):
 
Tides and Currents Weather Stations Pressure Air Temp Water Temp Dewpoint Dewpoint Depression Visibility Wind Speed Wind Dir Waves Ship Positions

Tenoumaru

Last reported at 2018-Feb-16 15:11 UTC. Time now 2018-Feb-20 19:40 UTC.
Position N 34°36' E 138°55'.

Length 80 m; draft 5.3 m.

Type: Cargo ship. MMSI: 431600768.

Date/timePositionNaut miles runAvg speedWind from/ knotsBaromVisibWave heightAir tempDewpointWater temp
2018-Feb-16 15:11N 34°36' E 138°55'5210.2
2018-Feb-16 10:04N 35°08' E 139°44'111.4
2018-Feb-16 09:59N 35°09' E 139°44'611.3
2018-Feb-16 09:28N 35°15' E 139°46'511.2
2018-Feb-16 09:00N 35°19' E 139°43'5 9.8
2018-Feb-16 08:30N 35°24' E 139°42'4 7.6
2018-Feb-16 08:00N 35°28' E 139°40'1 2.2
2018-Feb-16 07:29N 35°29' E 139°40'0 0.0
2018-Feb-16 07:00N 35°29' E 139°40'0 0.0
2018-Feb-16 06:30N 35°29' E 139°40'0 0.0
2018-Feb-16 06:00N 35°29' E 139°40'0 0.0
2018-Feb-16 05:30N 35°29' E 139°40'0 0.0
2018-Feb-16 05:00N 35°29' E 139°40'0 0.0
2018-Feb-16 04:30N 35°29' E 139°40'0 0.0
2018-Feb-16 04:00N 35°29' E 139°40'0 0.0
2018-Feb-16 03:30N 35°29' E 139°40'0 0.0
2018-Feb-16 03:00N 35°29' E 139°40'0 0.0
2018-Feb-16 02:29N 35°29' E 139°40'0 0.0
2018-Feb-16 02:00N 35°29' E 139°40'0 0.0
2018-Feb-16 01:30N 35°29' E 139°40'0 0.0
2018-Feb-16 01:00N 35°29' E 139°40'0 0.0
2018-Feb-16 00:30N 35°29' E 139°40'0 0.0
2018-Feb-16 00:00N 35°29' E 139°40'0 0.0
2018-Feb-15 23:30N 35°29' E 139°40'0 0.0
2018-Feb-15 23:00N 35°29' E 139°40'1 1.2
2018-Feb-15 22:30N 35°29' E 139°39'0 0.0
2018-Feb-15 22:00N 35°29' E 139°39'0 0.0
2018-Feb-15 21:30N 35°29' E 139°39'0 0.0
2018-Feb-15 20:59N 35°29' E 139°39'0 0.0
2018-Feb-15 20:30N 35°29' E 139°39'0 0.0
2018-Feb-15 20:00N 35°29' E 139°39'0 0.0
2018-Feb-15 19:30N 35°29' E 139°39'0 0.0
2018-Feb-15 19:00N 35°29' E 139°39'0 0.0
2018-Feb-15 18:30N 35°29' E 139°39'0 0.0
2018-Feb-15 18:00N 35°29' E 139°39'0 0.0
2018-Feb-15 17:30N 35°29' E 139°39'0 0.0
2018-Feb-15 17:00N 35°29' E 139°39'0 0.0
2018-Feb-15 16:30N 35°29' E 139°39'0 0.0
2018-Feb-15 16:00N 35°29' E 139°39'0 0.0
2018-Feb-15 15:30N 35°29' E 139°39'0 0.0
2018-Feb-15 15:00N 35°29' E 139°39'0 0.0
2018-Feb-15 14:30N 35°29' E 139°39'0 0.0
2018-Feb-15 14:00N 35°29' E 139°39'0 0.0
2018-Feb-15 13:30N 35°29' E 139°39'0 0.0
2018-Feb-15 13:00N 35°29' E 139°39'0 0.0
2018-Feb-15 12:30N 35°29' E 139°39'0 0.0
2018-Feb-15 12:00N 35°29' E 139°39'0 0.0
2018-Feb-15 11:29N 35°29' E 139°39'0 0.0
2018-Feb-15 11:00N 35°29' E 139°39'0 0.0
2018-Feb-15 10:30N 35°29' E 139°39'0 0.0
2018-Feb-15 10:00N 35°29' E 139°39'0 0.0
2018-Feb-15 09:30N 35°29' E 139°39'0 0.0
2018-Feb-15 09:00N 35°29' E 139°39'0 0.0
2018-Feb-15 08:30N 35°29' E 139°39'0 0.0
2018-Feb-15 08:00N 35°29' E 139°39'0 0.0
2018-Feb-15 07:30N 35°29' E 139°39'0 0.0
2018-Feb-15 07:00N 35°29' E 139°39'0 0.0
2018-Feb-15 06:30N 35°29' E 139°39'0 0.0
2018-Feb-15 06:00N 35°29' E 139°39'0 0.0
2018-Feb-15 05:30N 35°29' E 139°39'0 0.0
2018-Feb-15 04:58N 35°29' E 139°39'0 0.8
2018-Feb-15 04:30N 35°28' E 139°39'510.2
2018-Feb-15 04:00N 35°27' E 139°45'611.5
2018-Feb-15 03:28N 35°30' E 139°52'510.5
2018-Feb-15 03:00N 35°28' E 139°58'1 1.6
2018-Feb-15 02:25N 35°27' E 139°58'0 0.0
2018-Feb-15 02:00N 35°27' E 139°58'0 0.0
2018-Feb-15 01:30N 35°27' E 139°58'0 0.0
2018-Feb-15 01:00N 35°27' E 139°58'0 0.0
2018-Feb-15 00:30N 35°27' E 139°58'0 0.0
2018-Feb-15 00:00N 35°27' E 139°58'3 4.1
2018-Feb-14 23:22N 35°29' E 139°56'0 0.1
2018-Feb-14 23:00N 35°29' E 139°57'0 0.0
2018-Feb-14 22:28N 35°29' E 139°57'0 0.0
2018-Feb-14 19:30N 35°29' E 139°57'2 3.9
2018-Feb-14 19:00N 35°29' E 139°54'511.0
2018-Feb-14 18:30N 35°26' E 139°49'611.4
2018-Feb-14 18:00N 35°21' E 139°45'610.7
2018-Feb-14 17:28N 35°16' E 139°47'611.3
2018-Feb-14 16:58N 35°10' E 139°47'510.6
2018-Feb-14 16:30N 35°05' E 139°44'510.7
2018-Feb-14 16:00N 35°02' E 139°39'1412.9
2018-Feb-14 14:55N 34°55' E 139°24'613.9
2018-Feb-14 14:29N 34°52' E 139°18'812.7
2018-Feb-14 13:51N 34°47' E 139°10'611.5
2018-Feb-14 13:19N 34°43' E 139°05'712.4
2018-Feb-14 12:44N 34°38' E 138°59'312.8
2018-Feb-14 12:29N 34°35' E 138°56'613.0
2018-Feb-14 12:00N 34°35' E 138°49'811.8
2018-Feb-14 11:21N 34°34' E 138°39'511.0
2018-Feb-14 10:55N 34°33' E 138°34'1411.1
2018-Feb-14 09:39N 34°32' E 138°17'  
2018-Feb-10 20:25N 33°48' E 132°31'113 8.9
2018-Feb-10 07:45N 34°05' E 134°46'257 9.3
2018-Feb-09 04:00N 35°14' E 139°46'1510.0
2018-Feb-09 02:30N 35°29' E 139°42'1 2.0
2018-Feb-09 02:00N 35°30' E 139°43'0 0.0
2018-Feb-09 01:00N 35°30' E 139°43'0 0.0
2018-Feb-08 23:00N 35°30' E 139°43'5 4.6
2018-Feb-08 22:00N 35°30' E 139°49'0 0.1
2018-Feb-08 18:00N 35°29' E 139°49'0 0.0
2018-Feb-08 17:30N 35°29' E 139°49'0 0.0
2018-Feb-08 11:00N 35°29' E 139°49'0 0.0
2018-Feb-08 10:30N 35°29' E 139°49'0 0.0
2018-Feb-08 10:00N 35°29' E 139°49'0 0.0
2018-Feb-08 09:00N 35°29' E 139°49'3 3.4
2018-Feb-08 08:00N 35°31' E 139°45'0 0.1
2018-Feb-08 07:00N 35°31' E 139°45'0 0.0
2018-Feb-08 05:30N 35°31' E 139°45'0 0.0
2018-Feb-08 04:30N 35°31' E 139°45'0 0.0
2018-Feb-08 04:00N 35°31' E 139°45'0 0.0
2018-Feb-08 03:30N 35°31' E 139°45'0 0.0
2018-Feb-08 03:00N 35°31' E 139°45'12 8.1
2018-Feb-08 01:30N 35°18' E 139°44'510.8
2018-Feb-08 01:01N 35°14' E 139°47'610.9
2018-Feb-08 00:30N 35°08' E 139°46'1010.8
2018-Feb-07 23:36N 35°01' E 139°38'2411.5
2018-Feb-07 21:30N 34°47' E 139°15'21510.2
2018-Feb-07 00:22N 33°49' E 135°03'511.7
2018-Feb-06 23:57N 33°53' E 134°59'511.5
2018-Feb-06 23:30N 33°56' E 134°55'711.5
2018-Feb-06 22:52N 34°02' E 134°49'411.8
2018-Feb-06 22:30N 34°05' E 134°46'712.0
2018-Feb-06 21:53N 34°11' E 134°41'512.9
2018-Feb-06 21:29N 34°16' E 134°37'611.8
2018-Feb-06 21:00N 34°17' E 134°31'  

Dump ship's entire track history